Time;durP1;ratioP1;P1;durP2;ratioP2;P2;SDS_P1;SDS_P2;PMS_P1;PMS_P2;Temp;Humidity;BMP_temperature;BMP_pressure;BME280_temperature;BME280_humidity;BME280_pressure;Samples;Min_cycle;Max_cycle;Signal;HPM_P1;HPM_P2
2022/05/11 00:00:33;;;;;;;20.03;13.67;;;10.90;99.90;;;;;;5073693;28;20235;-79
2022/05/11 00:03:00;;;;;;;17.60;13.20;;;11.00;99.90;;;;;;5072094;28;20285;-79
2022/05/11 00:05:27;;;;;;;20.20;15.27;;;11.00;99.90;;;;;;5077290;28;20244;-80
2022/05/11 00:07:54;;;;;;;20.90;14.53;;;11.00;99.90;;;;;;5080453;28;20321;-80
2022/05/11 00:10:21;;;;;;;20.23;15.03;;;11.00;99.90;;;;;;5069870;28;20589;-79
2022/05/11 00:12:49;;;;;;;18.73;14.17;;;11.10;99.90;;;;;;5076425;28;20216;-80
2022/05/11 00:15:20;;;;;;;20.77;14.50;;;11.10;99.90;;;;;;5078722;28;20233;-80
2022/05/11 00:17:47;;;;;;;14.93;12.43;;;11.10;99.90;;;;;;5075541;28;20236;-79
2022/05/11 00:20:15;;;;;;;19.83;14.60;;;11.10;99.90;;;;;;5075571;28;20719;-81
2022/05/11 00:22:42;;;;;;;19.83;15.17;;;11.20;99.90;;;;;;5093151;28;20229;-81
2022/05/11 00:25:12;;;;;;;19.07;14.43;;;11.20;99.90;;;;;;5075096;28;20226;-81
2022/05/11 00:27:38;;;;;;;17.23;13.30;;;11.20;99.90;;;;;;5080876;28;20236;-81
2022/05/11 00:30:07;;;;;;;17.20;12.73;;;11.20;99.90;;;;;;5081462;28;20248;-81
2022/05/11 00:32:36;;;;;;;17.30;12.53;;;11.20;99.90;;;;;;5071852;28;20242;-80
2022/05/11 00:35:02;;;;;;;19.23;14.40;;;11.20;99.90;;;;;;5074243;28;20218;-81
2022/05/11 00:37:29;;;;;;;15.97;13.53;;;11.20;99.90;;;;;;5074985;28;20227;-81
2022/05/11 00:39:58;;;;;;;18.60;13.93;;;11.30;99.90;;;;;;5081363;28;20226;-81
2022/05/11 00:42:25;;;;;;;16.20;12.63;;;11.30;99.90;;;;;;5074574;28;20221;-80
2022/05/11 00:44:51;;;;;;;16.30;13.43;;;11.30;99.90;;;;;;5078801;28;20222;-80
2022/05/11 00:47:23;;;;;;;19.27;14.40;;;11.30;99.90;;;;;;5078769;28;20229;-80
2022/05/11 00:49:52;;;;;;;17.97;14.03;;;11.30;99.90;;;;;;5079741;28;20226;-80
2022/05/11 00:52:23;;;;;;;16.30;12.40;;;11.30;99.90;;;;;;5072609;28;20779;-79
2022/05/11 00:54:55;;;;;;;15.30;12.50;;;11.20;99.90;;;;;;5076520;28;20234;-79
2022/05/11 00:57:26;;;;;;;15.67;12.97;;;11.30;99.90;;;;;;5076455;28;20233;-79
2022/05/11 00:59:54;;;;;;;14.87;12.70;;;11.30;99.90;;;;;;5084812;28;20228;-79
2022/05/11 01:02:23;;;;;;;17.77;14.17;;;11.30;99.90;;;;;;5075132;28;20216;-79
2022/05/11 01:04:57;;;;;;;16.10;14.17;;;11.40;99.90;;;;;;5082232;28;20222;-79
2022/05/11 01:07:24;;;;;;;16.97;13.43;;;11.30;99.90;;;;;;5081146;28;20305;-79
2022/05/11 01:09:51;;;;;;;15.30;12.37;;;11.30;99.90;;;;;;5082338;28;20227;-80
2022/05/11 01:12:20;;;;;;;17.57;12.93;;;11.40;99.90;;;;;;5080509;28;20229;-80
2022/05/11 01:14:52;;;;;;;17.67;13.10;;;11.30;99.90;;;;;;5085164;28;20227;-80
2022/05/11 01:17:20;;;;;;;15.50;12.43;;;11.30;99.90;;;;;;5085968;28;20649;-81
2022/05/11 01:19:48;;;;;;;16.90;12.73;;;11.30;99.90;;;;;;5078328;28;20238;-80
2022/05/11 01:22:23;;;;;;;16.40;12.70;;;11.30;99.90;;;;;;5083568;28;20253;-81
2022/05/11 01:24:51;;;;;;;17.40;13.67;;;11.30;99.90;;;;;;5081738;28;20214;-81
2022/05/11 01:27:27;;;;;;;17.27;13.83;;;11.30;99.90;;;;;;5081943;28;20221;-80
2022/05/11 01:29:55;;;;;;;14.97;12.00;;;11.30;99.90;;;;;;5080267;28;20237;-80
2022/05/11 01:32:25;;;;;;;16.10;13.10;;;11.30;99.90;;;;;;5080277;28;20610;-80
2022/05/11 01:34:57;;;;;;;16.37;12.50;;;11.30;99.90;;;;;;5078799;28;20282;-80
2022/05/11 01:37:24;;;;;;;15.23;12.43;;;11.30;99.90;;;;;;5080172;28;20230;-80
2022/05/11 01:39:52;;;;;;;16.57;13.30;;;11.30;99.90;;;;;;5076932;28;20231;-80
2022/05/11 01:42:20;;;;;;;16.10;12.73;;;11.30;99.90;;;;;;5082902;28;20246;-80
2022/05/11 01:44:47;;;;;;;18.93;13.20;;;11.30;99.90;;;;;;5080716;28;20226;-79
2022/05/11 01:47:14;;;;;;;16.83;13.33;;;11.30;99.90;;;;;;5084083;28;20226;-80
2022/05/11 01:49:41;;;;;;;16.50;13.40;;;11.30;99.90;;;;;;5084396;28;20902;-79
2022/05/11 01:52:07;;;;;;;15.17;12.80;;;11.30;99.90;;;;;;5079818;28;20223;-80
2022/05/11 01:54:34;;;;;;;15.77;12.47;;;11.30;99.90;;;;;;5074990;28;20222;-80
2022/05/11 01:57:02;;;;;;;16.20;12.40;;;11.30;99.90;;;;;;5081981;28;20219;-80
2022/05/11 01:59:29;;;;;;;17.90;13.17;;;11.20;99.90;;;;;;5081788;28;20227;-79
2022/05/11 02:01:55;;;;;;;18.30;12.63;;;11.20;99.90;;;;;;5080824;28;20228;-79
2022/05/11 02:09:53;;;;;;;18.20;12.60;;;11.20;99.90;;;;;;5080991;28;20240;-80
2022/05/11 02:12:21;;;;;;;15.63;12.53;;;11.20;99.90;;;;;;5082599;28;20233;-80
2022/05/11 02:14:48;;;;;;;17.97;13.20;;;11.20;99.90;;;;;;5074726;28;20220;-81
2022/05/11 02:17:15;;;;;;;14.80;11.20;;;11.20;99.90;;;;;;5081559;28;20232;-80
2022/05/11 02:19:41;;;;;;;15.07;11.50;;;11.30;99.90;;;;;;5082878;28;20233;-80
2022/05/11 02:22:09;;;;;;;17.57;12.77;;;11.30;99.90;;;;;;5082409;28;20776;-80
2022/05/11 02:24:35;;;;;;;17.13;13.27;;;11.30;99.90;;;;;;5079219;28;20222;-80
2022/05/11 02:27:03;;;;;;;16.80;13.27;;;11.30;99.90;;;;;;5076537;28;20222;-81
2022/05/11 02:29:31;;;;;;;15.87;12.67;;;11.30;99.90;;;;;;5082922;28;20246;-80
2022/05/11 02:31:58;;;;;;;12.77;10.97;;;11.40;99.90;;;;;;5081813;28;20225;-81
2022/05/11 02:37:09;;;;;;;14.87;12.23;;;11.40;99.90;;;;;;5085076;28;20325;-81
2022/05/11 02:39:36;;;;;;;16.77;12.80;;;11.40;99.90;;;;;;5084733;28;20231;-80
2022/05/11 02:42:03;;;;;;;16.80;13.13;;;11.40;99.90;;;;;;5083265;28;20222;-78
2022/05/11 02:44:31;;;;;;;16.67;12.83;;;11.40;99.90;;;;;;5076261;28;20219;-79
2022/05/11 02:46:57;;;;;;;16.73;12.77;;;11.40;99.90;;;;;;5082939;28;20773;-80
2022/05/11 02:49:24;;;;;;;18.27;12.70;;;11.40;99.90;;;;;;5082363;28;20226;-80
2022/05/11 02:51:51;;;;;;;14.30;12.00;;;11.40;99.90;;;;;;5078553;28;20226;-81
2022/05/11 02:54:17;;;;;;;16.57;12.93;;;11.40;99.90;;;;;;5075955;28;20329;-80
2022/05/11 02:56:45;;;;;;;18.27;13.07;;;11.40;99.90;;;;;;5080787;28;20226;-80
2022/05/11 02:59:12;;;;;;;16.73;12.83;;;11.40;99.90;;;;;;5078393;28;20826;-80
2022/05/11 03:01:40;;;;;;;17.10;13.00;;;11.40;99.90;;;;;;5080397;28;20550;-81
2022/05/11 03:04:07;;;;;;;13.67;12.17;;;11.40;99.90;;;;;;5078377;28;20218;-81
2022/05/11 03:06:34;;;;;;;14.63;11.90;;;11.40;99.90;;;;;;5078971;28;20226;-80
2022/05/11 03:09:00;;;;;;;14.17;11.77;;;11.40;99.90;;;;;;5082565;28;20230;-80
2022/05/11 03:11:27;;;;;;;15.70;12.10;;;11.40;99.90;;;;;;5076780;28;20229;-80
2022/05/11 03:13:54;;;;;;;16.20;12.10;;;11.40;99.90;;;;;;5079371;28;20225;-80
2022/05/11 03:16:20;;;;;;;15.23;12.50;;;11.40;99.90;;;;;;5081862;28;20258;-80
2022/05/11 03:18:48;;;;;;;15.07;12.53;;;11.40;99.90;;;;;;5079784;28;20215;-80
2022/05/11 03:21:15;;;;;;;14.53;12.40;;;11.40;99.90;;;;;;5080266;28;20225;-79
2022/05/11 03:23:42;;;;;;;13.70;12.27;;;11.50;99.90;;;;;;5076305;28;20217;-79
2022/05/11 03:26:11;;;;;;;14.33;12.37;;;11.50;99.90;;;;;;5082398;28;20215;-79
2022/05/11 03:28:38;;;;;;;15.93;11.70;;;11.50;99.90;;;;;;5079651;28;20233;-79
2022/05/11 03:31:04;;;;;;;14.77;12.20;;;11.50;99.90;;;;;;5079392;28;20943;-79
2022/05/11 03:36:17;;;;;;;15.77;12.37;;;11.50;99.90;;;;;;5078307;28;20224;-80
2022/05/11 03:38:44;;;;;;;17.20;12.73;;;11.50;99.90;;;;;;5076185;28;20229;-80
2022/05/11 03:41:11;;;;;;;13.73;11.50;;;11.50;99.90;;;;;;5077942;28;20316;-79
2022/05/11 03:43:37;;;;;;;14.30;11.37;;;11.50;99.90;;;;;;5078198;28;20231;-79
2022/05/11 03:46:04;;;;;;;12.97;11.10;;;11.50;99.90;;;;;;5083152;28;20226;-79
2022/05/11 03:48:32;;;;;;;14.27;12.03;;;11.40;99.90;;;;;;5075752;28;20939;-79
2022/05/11 03:50:59;;;;;;;13.70;12.20;;;11.40;99.90;;;;;;5074941;28;20222;-79
2022/05/11 03:53:27;;;;;;;17.53;12.50;;;11.40;99.90;;;;;;5080287;28;20226;-80
2022/05/11 03:55:54;;;;;;;16.90;13.13;;;11.40;99.90;;;;;;5079165;28;20222;-79
2022/05/11 03:58:21;;;;;;;13.40;12.00;;;11.40;99.90;;;;;;5075415;28;20306;-80
2022/05/11 04:00:47;;;;;;;15.10;12.40;;;11.40;99.90;;;;;;5078736;28;20241;-80
2022/05/11 04:03:14;;;;;;;13.40;12.00;;;11.40;99.90;;;;;;5076514;28;20223;-79
2022/05/11 04:05:41;;;;;;;16.70;12.43;;;11.50;99.90;;;;;;5077217;28;20226;-79
2022/05/11 04:08:09;;;;;;;15.80;11.90;;;11.50;99.90;;;;;;5076994;28;20251;-79
2022/05/11 04:10:38;;;;;;;14.47;11.93;;;11.40;99.90;;;;;;5094251;28;20660;-79
2022/05/11 04:13:06;;;;;;;13.90;11.90;;;11.40;99.90;;;;;;5079972;28;20237;-79
2022/05/11 04:15:36;;;;;;;15.70;12.60;;;11.40;99.90;;;;;;5075658;28;20737;-80
2022/05/11 04:18:03;;;;;;;14.20;12.10;;;11.40;99.90;;;;;;5077635;28;20254;-80
2022/05/11 04:20:30;;;;;;;16.37;12.67;;;11.40;99.90;;;;;;5078240;28;20231;-79
2022/05/11 04:22:56;;;;;;;14.40;12.40;;;11.40;99.90;;;;;;5079231;28;20224;-79
2022/05/11 04:25:24;;;;;;;14.97;12.17;;;11.40;99.90;;;;;;5080891;28;20225;-79
2022/05/11 04:27:52;;;;;;;14.03;11.80;;;11.40;99.90;;;;;;5080681;28;20229;-79
2022/05/11 04:30:20;;;;;;;14.97;11.70;;;11.50;99.90;;;;;;5078205;28;20234;-78
2022/05/11 04:32:47;;;;;;;14.40;12.33;;;11.50;99.90;;;;;;5080553;28;20388;-79
2022/05/11 04:35:14;;;;;;;14.23;11.87;;;11.50;99.90;;;;;;5077969;28;20221;-80
2022/05/11 04:37:40;;;;;;;19.47;12.50;;;11.50;99.90;;;;;;5079781;28;20683;-78
2022/05/11 04:40:11;;;;;;;15.07;12.73;;;11.60;99.90;;;;;;5086628;28;20233;-79
2022/05/11 04:42:38;;;;;;;13.50;11.03;;;11.70;99.90;;;;;;5079663;28;20232;-77
2022/05/11 04:45:07;;;;;;;13.53;12.10;;;11.70;99.90;;;;;;5087858;28;20333;-78
2022/05/11 04:47:33;;;;;;;13.70;12.17;;;11.70;99.90;;;;;;5081185;28;20223;-79
2022/05/11 04:50:00;;;;;;;19.67;12.87;;;11.80;99.90;;;;;;5080335;28;20226;-79
2022/05/11 04:52:26;;;;;;;14.53;12.73;;;11.80;99.90;;;;;;5081862;28;20659;-77
2022/05/11 04:54:53;;;;;;;17.03;12.30;;;11.90;99.90;;;;;;5083256;28;20218;-79
2022/05/11 04:57:21;;;;;;;17.33;13.07;;;11.90;99.90;;;;;;5084202;28;20236;-78
2022/05/11 04:59:49;;;;;;;15.97;12.70;;;12.00;99.90;;;;;;5081692;28;20261;-78
2022/05/11 05:02:19;;;;;;;16.07;13.60;;;12.00;99.90;;;;;;5072430;28;20227;-76
2022/05/11 05:04:47;;;;;;;14.23;11.80;;;12.10;99.90;;;;;;5082407;28;20226;-77
2022/05/11 05:07:14;;;;;;;14.27;11.93;;;12.10;99.90;;;;;;5085356;28;20298;-77
2022/05/11 05:09:41;;;;;;;15.00;12.50;;;12.20;99.90;;;;;;5082779;28;20313;-77
2022/05/11 05:12:09;;;;;;;14.63;13.03;;;12.30;99.90;;;;;;5083961;28;20221;-76
2022/05/11 05:14:36;;;;;;;16.23;12.20;;;12.30;99.90;;;;;;5083431;28;20245;-77
2022/05/11 05:17:05;;;;;;;15.03;11.73;;;12.40;99.90;;;;;;5082448;28;20226;-77
2022/05/11 05:19:33;;;;;;;16.73;13.30;;;12.40;99.90;;;;;;5077298;28;20229;-77
2022/05/11 05:22:02;;;;;;;15.13;12.43;;;12.50;99.90;;;;;;5077110;28;20322;-77
2022/05/11 05:24:29;;;;;;;14.00;11.47;;;12.50;99.90;;;;;;5080291;28;20300;-77
2022/05/11 05:26:56;;;;;;;16.27;12.33;;;12.60;99.90;;;;;;5081572;28;20222;-76
2022/05/11 05:32:07;;;;;;;14.50;11.67;;;12.60;99.90;;;;;;5077711;28;20974;-76
2022/05/11 05:34:35;;;;;;;17.57;12.67;;;12.70;99.90;;;;;;5074973;28;20298;-77
2022/05/11 05:37:02;;;;;;;15.87;12.70;;;12.70;99.90;;;;;;5072872;28;20232;-77
2022/05/11 05:39:29;;;;;;;14.57;12.60;;;12.80;99.90;;;;;;5075031;28;20270;-80
2022/05/11 05:41:55;;;;;;;16.83;13.23;;;12.80;99.90;;;;;;5079690;28;20238;-78
2022/05/11 05:44:24;;;;;;;13.97;12.37;;;12.90;99.90;;;;;;5075187;28;20598;-78
2022/05/11 05:46:50;;;;;;;15.83;13.00;;;12.90;99.90;;;;;;5073262;28;20228;-78
2022/05/11 05:49:17;;;;;;;16.47;13.93;;;13.00;99.90;;;;;;5079859;28;20253;-78
2022/05/11 05:51:45;;;;;;;16.07;13.13;;;13.00;99.90;;;;;;5083189;28;20229;-78
2022/05/11 05:54:12;;;;;;;15.13;13.00;;;13.10;99.90;;;;;;5083895;28;20226;-78
2022/05/11 05:56:39;;;;;;;17.53;13.13;;;13.10;99.90;;;;;;5083379;28;20224;-78
2022/05/11 05:59:09;;;;;;;14.97;13.07;;;13.10;99.90;;;;;;5086087;28;20545;-78
2022/05/11 06:01:36;;;;;;;13.90;12.33;;;13.20;99.90;;;;;;5086036;28;20230;-78
2022/05/11 06:04:03;;;;;;;16.77;12.40;;;13.20;99.90;;;;;;5082710;28;20942;-78
2022/05/11 06:06:29;;;;;;;13.43;12.03;;;13.20;99.90;;;;;;5078271;28;20698;-78
2022/05/11 06:08:57;;;;;;;15.07;12.33;;;13.20;99.90;;;;;;5082511;28;20229;-78
2022/05/11 06:11:24;;;;;;;14.77;12.43;;;13.20;99.90;;;;;;5078349;28;20238;-78
2022/05/11 06:13:51;;;;;;;15.17;13.30;;;13.30;99.90;;;;;;5082584;28;20800;-78
2022/05/11 06:16:17;;;;;;;15.00;12.37;;;13.30;99.90;;;;;;5083671;28;20672;-78
2022/05/11 06:18:46;;;;;;;17.60;12.30;;;13.30;99.90;;;;;;5084018;28;20340;-78
2022/05/11 06:21:14;;;;;;;14.23;11.93;;;13.30;99.90;;;;;;5081088;28;20233;-79
2022/05/11 06:23:41;;;;;;;15.00;12.43;;;13.30;99.90;;;;;;5083044;28;20331;-78
2022/05/11 06:26:10;;;;;;;14.60;12.50;;;13.30;99.90;;;;;;5080098;28;20306;-78
2022/05/11 06:28:39;;;;;;;15.50;12.80;;;13.30;99.90;;;;;;5078460;28;20233;-78
2022/05/11 06:31:06;;;;;;;17.97;12.60;;;13.30;99.90;;;;;;5083485;28;21046;-78
2022/05/11 06:33:34;;;;;;;15.93;12.60;;;13.30;99.90;;;;;;5080768;28;20225;-78
2022/05/11 06:36:00;;;;;;;17.30;13.53;;;13.30;99.90;;;;;;5076071;28;20282;-78
2022/05/11 06:38:27;;;;;;;16.17;13.07;;;13.30;99.90;;;;;;5082769;28;20217;-78
2022/05/11 06:40:54;;;;;;;15.27;12.53;;;13.40;99.90;;;;;;5081324;28;21067;-79
2022/05/11 06:43:22;;;;;;;15.23;13.63;;;13.40;99.90;;;;;;5080797;28;20225;-78
2022/05/11 06:45:49;;;;;;;18.07;14.17;;;13.40;99.90;;;;;;5083931;28;20233;-78
2022/05/11 06:48:15;;;;;;;18.20;14.90;;;13.40;99.90;;;;;;5083507;28;20225;-78
2022/05/11 06:50:42;;;;;;;17.13;14.33;;;13.40;99.90;;;;;;5072775;28;21055;-78
2022/05/11 06:53:12;;;;;;;18.13;14.87;;;13.40;99.90;;;;;;5079733;28;20338;-78
2022/05/11 07:01:09;;;;;;;16.47;13.53;;;13.50;99.90;;;;;;5080557;28;20280;-78
2022/05/11 07:03:36;;;;;;;14.97;13.40;;;13.60;99.90;;;;;;5080673;28;20225;-78
2022/05/11 07:06:04;;;;;;;17.17;13.27;;;13.60;99.90;;;;;;5082963;28;20226;-78
2022/05/11 07:08:35;;;;;;;16.53;13.33;;;13.60;99.90;;;;;;5082250;28;20290;-78
2022/05/11 07:13:47;;;;;;;16.97;12.67;;;13.70;99.90;;;;;;5073981;28;20308;-78
2022/05/11 07:16:13;;;;;;;14.33;12.53;;;13.80;99.90;;;;;;5083418;28;20221;-78
2022/05/11 07:18:41;;;;;;;14.60;12.50;;;13.90;99.90;;;;;;5082947;28;20327;-78
2022/05/11 07:21:07;;;;;;;16.10;12.17;;;13.90;99.90;;;;;;5072907;28;20233;-78
2022/05/11 07:23:34;;;;;;;16.50;12.80;;;13.90;99.90;;;;;;5074401;28;20557;-78
2022/05/11 07:26:01;;;;;;;16.77;12.07;;;13.90;99.90;;;;;;5077292;28;20346;-78
2022/05/11 07:28:27;;;;;;;15.00;11.37;;;13.90;99.90;;;;;;5074596;28;21272;-78
2022/05/11 07:30:55;;;;;;;14.00;11.47;;;13.90;99.90;;;;;;5080195;28;20366;-78
2022/05/11 07:33:22;;;;;;;15.73;12.13;;;13.80;99.90;;;;;;5075262;28;21015;-78
2022/05/11 07:35:49;;;;;;;16.07;12.10;;;13.90;99.90;;;;;;5080710;28;20220;-78
2022/05/11 07:38:18;;;;;;;12.97;10.97;;;13.90;99.90;;;;;;5075200;28;20306;-78
2022/05/11 07:40:46;;;;;;;12.17;10.87;;;13.80;99.90;;;;;;5074015;28;20248;-78
2022/05/11 07:43:13;;;;;;;12.87;11.03;;;13.80;99.90;;;;;;5074457;28;20232;-78
2022/05/11 07:45:41;;;;;;;13.33;11.63;;;13.90;99.90;;;;;;5077272;28;20225;-78
2022/05/11 07:48:09;;;;;;;13.23;11.13;;;13.90;99.90;;;;;;5079610;28;20218;-78
2022/05/11 07:50:36;;;;;;;12.53;11.27;;;13.90;99.90;;;;;;5082046;28;20233;-78
2022/05/11 07:53:05;;;;;;;13.87;11.20;;;13.80;99.90;;;;;;5081153;28;20685;-79
2022/05/11 07:55:33;;;;;;;15.57;11.60;;;13.90;99.90;;;;;;5079973;28;20221;-78
2022/05/11 08:00:44;;;;;;;13.73;12.27;;;13.90;99.90;;;;;;5081279;28;20236;-78
2022/05/11 08:03:12;;;;;;;13.10;11.33;;;13.90;99.90;;;;;;5074277;28;20220;-78
2022/05/11 08:05:39;;;;;;;14.50;11.60;;;14.00;99.90;;;;;;5080117;28;20331;-78
2022/05/11 08:08:09;;;;;;;14.27;11.27;;;14.00;99.90;;;;;;5074177;28;20220;-78
2022/05/11 08:10:38;;;;;;;14.53;11.53;;;14.00;99.90;;;;;;5079257;28;20241;-78
2022/05/11 08:13:07;;;;;;;14.07;11.13;;;14.00;99.90;;;;;;5076901;28;20279;-78
2022/05/11 08:15:35;;;;;;;13.40;11.87;;;14.00;99.90;;;;;;5080353;28;20227;-78
2022/05/11 08:18:04;;;;;;;14.67;11.33;;;14.10;99.90;;;;;;5082409;28;21062;-78
2022/05/11 08:20:36;;;;;;;13.87;10.50;;;14.10;99.90;;;;;;5075648;28;20232;-79
2022/05/11 08:23:04;;;;;;;14.17;11.93;;;14.10;99.90;;;;;;5079854;28;20764;-78
2022/05/11 08:25:33;;;;;;;14.70;11.27;;;14.10;99.90;;;;;;5080416;28;20224;-78
2022/05/11 08:28:02;;;;;;;13.87;12.37;;;14.20;99.90;;;;;;5080230;28;20654;-78
2022/05/11 08:33:22;;;;;;;14.03;11.50;;;14.30;99.90;;;;;;5077350;28;20244;-78
2022/05/11 08:35:52;;;;;;;14.40;11.63;;;14.30;99.90;;;;;;5077917;28;20218;-79
2022/05/11 08:38:21;;;;;;;13.47;11.30;;;14.40;99.90;;;;;;5075685;28;20751;-79
2022/05/11 08:40:53;;;;;;;12.67;11.37;;;14.50;99.90;;;;;;5079651;28;20411;-78
2022/05/11 08:43:20;;;;;;;14.97;11.67;;;14.50;99.90;;;;;;5077848;28;20231;-79
2022/05/11 08:45:54;;;;;;;12.93;11.30;;;14.60;99.90;;;;;;5078426;28;20232;-80
2022/05/11 08:48:31;;;;;;;13.33;10.70;;;14.60;99.90;;;;;;5076240;28;20252;-80
2022/05/11 08:51:01;;;;;;;12.27;10.90;;;14.70;99.90;;;;;;5073087;28;20223;-80
2022/05/11 08:53:37;;;;;;;11.73;10.27;;;14.80;99.90;;;;;;5074750;28;20253;-80
2022/05/11 08:56:09;;;;;;;14.70;10.23;;;14.80;99.90;;;;;;5078272;28;20215;-80
2022/05/11 08:58:42;;;;;;;11.07;9.63;;;14.90;99.90;;;;;;5078243;28;20320;-80
2022/05/11 09:01:15;;;;;;;10.50;9.40;;;15.00;99.90;;;;;;5081228;28;20686;-80
2022/05/11 09:03:45;;;;;;;13.47;10.57;;;15.00;99.90;;;;;;5079016;28;20290;-80
2022/05/11 09:06:18;;;;;;;11.47;9.47;;;15.00;99.90;;;;;;5077152;28;20420;-80
2022/05/11 09:08:46;;;;;;;12.47;9.80;;;15.10;99.90;;;;;;5082854;28;20263;-80
2022/05/11 09:11:22;;;;;;;10.97;9.57;;;15.10;99.90;;;;;;5081541;28;20224;-79
2022/05/11 09:13:49;;;;;;;12.73;9.97;;;15.10;99.90;;;;;;5080255;28;20233;-77
2022/05/11 09:16:22;;;;;;;11.83;9.07;;;15.20;99.90;;;;;;5086542;28;20730;-76
2022/05/11 09:18:49;;;;;;;11.03;9.33;;;15.30;99.90;;;;;;5082634;28;20249;-77
2022/05/11 09:21:29;;;;;;;12.37;9.90;;;15.30;99.90;;;;;;5076363;28;20226;-77
2022/05/11 09:24:37;;;;;;;12.13;10.07;;;15.40;99.90;;;;;;5081078;28;20264;-78
2022/05/11 09:27:08;;;;;;;13.77;9.60;;;15.40;99.90;;;;;;5065384;28;20218;-77
2022/05/11 09:29:39;;;;;;;11.60;9.60;;;15.60;99.90;;;;;;5086609;28;20225;-77
2022/05/11 09:32:29;;;;;;;12.83;9.03;;;15.70;99.90;;;;;;5082147;28;20856;-77
2022/05/11 09:34:58;;;;;;;10.20;8.80;;;15.90;99.90;;;;;;5075462;28;20216;-79
2022/05/11 09:37:34;;;;;;;11.17;8.47;;;16.10;99.90;;;;;;5080683;28;20215;-77
2022/05/11 09:40:09;;;;;;;10.63;8.37;;;16.40;99.90;;;;;;5082474;28;20238;-78
2022/05/11 09:42:36;;;;;;;9.23;8.17;;;16.80;99.90;;;;;;5085149;28;20218;-79
2022/05/11 09:45:04;;;;;;;8.93;7.83;;;17.20;99.90;;;;;;5082763;28;20271;-79
2022/05/11 09:47:33;;;;;;;9.33;7.43;;;17.50;99.90;;;;;;5077739;28;20231;-78
2022/05/11 09:50:18;;;;;;;10.73;8.02;;;17.80;99.90;;;;;;5087335;28;20677;-78
2022/05/11 09:52:46;;;;;;;9.65;7.93;;;18.00;99.90;;;;;;5083855;28;20222;-78
2022/05/11 09:55:22;;;;;;;9.00;7.10;;;18.20;99.90;;;;;;5075973;28;20580;-79
2022/05/11 09:57:56;;;;;;;9.98;7.10;;;18.30;99.90;;;;;;5075542;28;20249;-78
2022/05/11 10:00:26;;;;;;;9.30;7.05;;;18.40;99.90;;;;;;5081204;28;20765;-78
2022/05/11 10:02:57;;;;;;;8.05;5.80;;;18.60;99.90;;;;;;5082976;28;20222;-78
2022/05/11 10:05:28;;;;;;;6.50;5.70;;;18.70;99.50;;;;;;5082762;28;20225;-78
2022/05/11 10:08:06;;;;;;;7.72;5.85;;;18.80;98.20;;;;;;5083913;28;20878;-79
2022/05/11 10:10:37;;;;;;;9.05;5.93;;;18.90;97.30;;;;;;5073380;28;20235;-78
2022/05/11 10:13:12;;;;;;;6.80;5.50;;;18.90;97.60;;;;;;5077870;28;20234;-78
2022/05/11 10:24:35;;;;;;;5.53;4.50;;;19.60;95.50;;;;;;5076744;28;20323;-79
2022/05/11 10:27:09;;;;;;;7.28;4.85;;;20.10;95.90;;;;;;5080182;28;20233;-79
2022/05/11 10:29:51;;;;;;;6.93;4.30;;;20.40;95.20;;;;;;5085990;28;20241;-79
2022/05/11 10:32:25;;;;;;;7.30;4.53;;;20.80;93.90;;;;;;5076080;28;20231;-79
2022/05/11 10:35:00;;;;;;;6.13;4.35;;;21.00;93.20;;;;;;5083150;28;20238;-79
2022/05/11 10:37:36;;;;;;;6.47;4.20;;;21.30;92.30;;;;;;5078381;28;20219;-79
2022/05/11 10:40:12;;;;;;;9.18;4.20;;;21.50;92.30;;;;;;5083935;28;20268;-79
2022/05/11 10:42:48;;;;;;;5.07;4.13;;;21.70;91.20;;;;;;5082005;28;20599;-79
2022/05/11 10:45:19;;;;;;;7.57;4.43;;;21.80;91.20;;;;;;5081235;28;20309;-79
2022/05/11 10:48:08;;;;;;;6.05;4.25;;;21.90;90.90;;;;;;5081913;28;20218;-79
2022/05/11 10:50:44;;;;;;;6.05;4.43;;;22.00;90.50;;;;;;5074650;28;21093;-79
2022/05/11 10:53:23;;;;;;;4.50;3.83;;;22.20;90.40;;;;;;5078450;28;20219;-79
2022/05/11 10:56:01;;;;;;;6.22;4.35;;;22.40;90.10;;;;;;5085260;28;20214;-79
2022/05/11 10:58:39;;;;;;;10.10;4.65;;;22.60;90.30;;;;;;5082065;28;20223;-79
2022/05/11 11:01:10;;;;;;;6.00;4.35;;;22.90;90.20;;;;;;5080409;28;20222;-79
2022/05/11 11:03:59;;;;;;;5.55;4.20;;;23.20;89.40;;;;;;5083757;28;20310;-79
2022/05/11 11:09:29;;;;;;;6.13;4.90;;;24.00;88.60;;;;;;5085625;28;20222;-78
2022/05/11 11:12:07;;;;;;;5.85;4.55;;;24.50;85.50;;;;;;5082724;28;20223;-78
2022/05/11 11:14:38;;;;;;;7.95;4.70;;;24.80;82.50;;;;;;5079460;28;20743;-78
2022/05/11 11:17:08;;;;;;;7.47;4.20;;;25.10;80.70;;;;;;5082180;28;20333;-78
2022/05/11 11:19:36;;;;;;;7.80;4.45;;;25.10;80.10;;;;;;5085490;28;20238;-78
2022/05/11 11:22:06;;;;;;;7.43;4.25;;;25.10;79.00;;;;;;5083402;28;20223;-78
2022/05/11 11:24:34;;;;;;;5.43;4.80;;;25.20;79.40;;;;;;5081865;28;20225;-78
2022/05/11 11:27:03;;;;;;;9.35;5.03;;;25.10;79.50;;;;;;5083191;28;20257;-78
2022/05/11 11:29:32;;;;;;;6.30;4.70;;;25.10;77.40;;;;;;5084075;28;20235;-79
2022/05/11 11:32:06;;;;;;;5.38;4.55;;;25.10;78.10;;;;;;5078334;28;20667;-81
2022/05/11 11:34:35;;;;;;;6.40;4.68;;;25.00;76.80;;;;;;5075199;28;20223;-81
2022/05/11 11:37:47;;;;;;;8.55;5.03;;;24.90;76.60;;;;;;5084727;28;20921;-79
2022/05/11 11:40:24;;;;;;;8.50;5.00;;;24.70;76.70;;;;;;5076711;28;20583;-79
2022/05/11 11:42:53;;;;;;;6.45;5.28;;;24.60;76.10;;;;;;5084253;28;20313;-79
2022/05/11 11:46:05;;;;;;;6.45;4.47;;;24.70;76.60;;;;;;5080098;28;20233;-79
2022/05/11 11:48:35;;;;;;;9.38;4.60;;;24.80;75.80;;;;;;5081159;28;20257;-79
2022/05/11 11:51:13;;;;;;;8.55;4.63;;;24.90;76.90;;;;;;5084771;28;20310;-80
2022/05/11 11:53:55;;;;;;;6.65;4.65;;;25.10;76.90;;;;;;5080843;28;20226;-79
2022/05/11 11:56:35;;;;;;;6.70;4.43;;;25.20;75.90;;;;;;5079009;28;20267;-79
2022/05/11 11:59:05;;;;;;;7.85;5.13;;;25.50;74.60;;;;;;5083433;28;20222;-79
2022/05/11 12:01:34;;;;;;;6.07;4.70;;;25.70;75.00;;;;;;5075985;28;20230;-79
2022/05/11 12:04:06;;;;;;;5.50;4.50;;;25.80;74.20;;;;;;5081432;28;20223;-79
2022/05/11 12:15:15;;;;;;;5.88;4.80;;;26.00;70.70;;;;;;5079247;28;20226;-79
2022/05/11 12:17:42;;;;;;;6.88;4.88;;;26.10;69.30;;;;;;5076533;28;20242;-80
2022/05/11 12:20:14;;;;;;;6.13;4.63;;;26.10;71.00;;;;;;5081753;28;20218;-79
2022/05/11 12:22:44;;;;;;;7.85;5.00;;;26.10;70.20;;;;;;5078104;28;20234;-79
2022/05/11 12:25:28;;;;;;;6.95;5.13;;;26.10;69.00;;;;;;5078409;28;20211;-79
2022/05/11 12:27:56;;;;;;;6.75;4.72;;;26.10;68.40;;;;;;5079848;28;20320;-79
2022/05/11 12:30:28;;;;;;;7.28;5.13;;;26.10;69.20;;;;;;5082592;28;20302;-79
2022/05/11 12:32:57;;;;;;;7.60;4.78;;;26.20;69.50;;;;;;5081111;28;20691;-79
2022/05/11 12:35:27;;;;;;;5.85;4.78;;;26.30;69.40;;;;;;5077303;28;20257;-79
2022/05/11 12:37:56;;;;;;;5.18;4.30;;;26.40;68.10;;;;;;5078973;28;20651;-79
2022/05/11 12:40:24;;;;;;;5.47;4.38;;;26.50;68.60;;;;;;5078685;28;20305;-79
2022/05/11 12:42:53;;;;;;;6.55;4.65;;;26.70;67.40;;;;;;5078453;28;20653;-80
2022/05/11 12:45:22;;;;;;;6.18;4.40;;;26.80;66.60;;;;;;5081042;28;20227;-79
2022/05/11 12:47:53;;;;;;;7.57;4.70;;;26.90;65.20;;;;;;5077956;28;21025;-79
2022/05/11 12:50:24;;;;;;;5.57;4.45;;;26.90;64.60;;;;;;5078568;28;20225;-79
2022/05/11 12:53:16;;;;;;;6.68;4.63;;;26.90;63.80;;;;;;5073310;28;20571;-79
2022/05/11 12:55:44;;;;;;;4.20;3.80;;;26.80;63.60;;;;;;5072453;28;20231;-79
2022/05/11 12:58:17;;;;;;;5.25;3.50;;;26.80;65.70;;;;;;5077184;28;20331;-79
2022/05/11 13:00:45;;;;;;;6.50;3.63;;;26.70;63.70;;;;;;5081558;28;20321;-80
2022/05/11 13:03:26;;;;;;;8.32;4.18;;;26.70;64.60;;;;;;5079882;28;20715;-79
2022/05/11 13:05:58;;;;;;;5.15;3.60;;;26.70;62.20;;;;;;5083616;28;20757;-79
2022/05/11 13:08:27;;;;;;;4.03;3.58;;;26.70;62.10;;;;;;5085205;28;20226;-79
2022/05/11 13:10:56;;;;;;;6.95;3.58;;;26.70;61.80;;;;;;5080598;28;20232;-79
2022/05/11 13:13:29;;;;;;;5.53;3.58;;;26.60;61.40;;;;;;5079707;28;20223;-79
2022/05/11 13:16:05;;;;;;;6.38;3.90;;;26.40;62.00;;;;;;5078539;28;20229;-79
2022/05/11 13:18:35;;;;;;;4.50;3.85;;;26.20;61.20;;;;;;5081480;28;20251;-79
2022/05/11 13:21:05;;;;;;;5.05;3.47;;;26.20;61.10;;;;;;5086460;28;20251;-79
2022/05/11 13:23:35;;;;;;;4.32;3.45;;;26.10;61.30;;;;;;5080144;28;20219;-79
2022/05/11 13:26:04;;;;;;;4.90;3.80;;;25.90;61.00;;;;;;5083938;28;20234;-79
2022/05/11 13:28:33;;;;;;;6.00;3.85;;;25.80;60.30;;;;;;5078959;28;20229;-79
2022/05/11 13:31:01;;;;;;;5.57;3.33;;;25.70;60.80;;;;;;5081665;28;20238;-80
2022/05/11 13:33:45;;;;;;;7.82;3.60;;;25.50;61.20;;;;;;5077379;28;20318;-79